sensor_id;sensor_type;location;lat;lon;timestamp;P1;durP1;ratioP1;P2;durP2;ratioP2
17207;SDS011;8720;48.488;9.202;2024-01-10T00:00:42;38.38;;;22.10;;
17207;SDS011;8720;48.488;9.202;2024-01-10T00:03:11;38.83;;;21.45;;
17207;SDS011;8720;48.488;9.202;2024-01-10T00:05:38;41.25;;;22.38;;
17207;SDS011;8720;48.488;9.202;2024-01-10T00:08:06;34.92;;;20.98;;
17207;SDS011;8720;48.488;9.202;2024-01-10T00:10:33;36.35;;;21.50;;
17207;SDS011;8720;48.488;9.202;2024-01-10T00:13:06;34.15;;;21.60;;
17207;SDS011;8720;48.488;9.202;2024-01-10T00:15:33;40.67;;;22.88;;
17207;SDS011;8720;48.488;9.202;2024-01-10T00:18:01;36.08;;;22.13;;
17207;SDS011;8720;48.488;9.202;2024-01-10T00:20:30;35.53;;;21.95;;
17207;SDS011;8720;48.488;9.202;2024-01-10T00:22:57;39.90;;;22.30;;
17207;SDS011;8720;48.488;9.202;2024-01-10T00:25:24;41.38;;;22.95;;
17207;SDS011;8720;48.488;9.202;2024-01-10T00:27:52;38.00;;;23.17;;
17207;SDS011;8720;48.488;9.202;2024-01-10T00:30:20;33.67;;;21.52;;
17207;SDS011;8720;48.488;9.202;2024-01-10T00:32:48;37.53;;;23.00;;
17207;SDS011;8720;48.488;9.202;2024-01-10T00:35:15;40.95;;;22.55;;
17207;SDS011;8720;48.488;9.202;2024-01-10T00:37:44;41.75;;;24.35;;
17207;SDS011;8720;48.488;9.202;2024-01-10T00:40:11;37.72;;;23.40;;
17207;SDS011;8720;48.488;9.202;2024-01-10T00:42:39;36.33;;;22.23;;
17207;SDS011;8720;48.488;9.202;2024-01-10T00:45:06;39.08;;;22.05;;
17207;SDS011;8720;48.488;9.202;2024-01-10T00:47:34;40.67;;;22.83;;
17207;SDS011;8720;48.488;9.202;2024-01-10T00:50:02;36.10;;;22.23;;
17207;SDS011;8720;48.488;9.202;2024-01-10T00:52:29;39.58;;;22.30;;
17207;SDS011;8720;48.488;9.202;2024-01-10T00:54:58;33.08;;;22.15;;
17207;SDS011;8720;48.488;9.202;2024-01-10T00:57:28;39.17;;;21.52;;
17207;SDS011;8720;48.488;9.202;2024-01-10T00:59:55;40.63;;;22.98;;
17207;SDS011;8720;48.488;9.202;2024-01-10T01:02:23;36.30;;;21.70;;
17207;SDS011;8720;48.488;9.202;2024-01-10T01:04:50;40.83;;;22.65;;
17207;SDS011;8720;48.488;9.202;2024-01-10T01:07:18;41.92;;;22.90;;
17207;SDS011;8720;48.488;9.202;2024-01-10T01:09:46;38.10;;;22.58;;
17207;SDS011;8720;48.488;9.202;2024-01-10T01:12:15;35.47;;;21.75;;
17207;SDS011;8720;48.488;9.202;2024-01-10T01:14:42;36.45;;;22.17;;
17207;SDS011;8720;48.488;9.202;2024-01-10T01:17:10;45.45;;;23.90;;
17207;SDS011;8720;48.488;9.202;2024-01-10T01:19:37;46.05;;;23.90;;
17207;SDS011;8720;48.488;9.202;2024-01-10T01:22:04;38.95;;;23.00;;
17207;SDS011;8720;48.488;9.202;2024-01-10T01:24:32;36.83;;;22.48;;
17207;SDS011;8720;48.488;9.202;2024-01-10T01:26:59;40.50;;;21.63;;
17207;SDS011;8720;48.488;9.202;2024-01-10T01:29:30;32.55;;;20.30;;
17207;SDS011;8720;48.488;9.202;2024-01-10T01:31:57;37.92;;;20.77;;
17207;SDS011;8720;48.488;9.202;2024-01-10T01:34:25;34.05;;;19.25;;
17207;SDS011;8720;48.488;9.202;2024-01-10T01:36:53;35.80;;;19.73;;
17207;SDS011;8720;48.488;9.202;2024-01-10T01:39:20;33.45;;;21.20;;
17207;SDS011;8720;48.488;9.202;2024-01-10T01:41:47;32.58;;;18.10;;
17207;SDS011;8720;48.488;9.202;2024-01-10T01:44:14;34.03;;;20.48;;
17207;SDS011;8720;48.488;9.202;2024-01-10T01:46:43;35.15;;;20.17;;
17207;SDS011;8720;48.488;9.202;2024-01-10T01:49:14;36.88;;;21.45;;
17207;SDS011;8720;48.488;9.202;2024-01-10T01:51:41;41.20;;;22.08;;
17207;SDS011;8720;48.488;9.202;2024-01-10T01:54:08;33.15;;;18.95;;
17207;SDS011;8720;48.488;9.202;2024-01-10T01:56:36;39.20;;;20.63;;
17207;SDS011;8720;48.488;9.202;2024-01-10T01:59:05;31.58;;;20.30;;
17207;SDS011;8720;48.488;9.202;2024-01-10T02:01:32;37.10;;;20.70;;
17207;SDS011;8720;48.488;9.202;2024-01-10T02:04:02;34.50;;;20.05;;
17207;SDS011;8720;48.488;9.202;2024-01-10T02:06:29;35.10;;;19.33;;
17207;SDS011;8720;48.488;9.202;2024-01-10T02:08:57;28.88;;;18.00;;
17207;SDS011;8720;48.488;9.202;2024-01-10T02:11:25;31.92;;;20.20;;
17207;SDS011;8720;48.488;9.202;2024-01-10T02:13:53;34.83;;;20.20;;
17207;SDS011;8720;48.488;9.202;2024-01-10T02:16:20;36.38;;;20.08;;
17207;SDS011;8720;48.488;9.202;2024-01-10T02:18:49;34.97;;;19.98;;
17207;SDS011;8720;48.488;9.202;2024-01-10T02:21:21;38.08;;;20.55;;
17207;SDS011;8720;48.488;9.202;2024-01-10T02:23:49;32.85;;;20.38;;
17207;SDS011;8720;48.488;9.202;2024-01-10T02:26:18;36.83;;;21.10;;
17207;SDS011;8720;48.488;9.202;2024-01-10T02:28:45;37.65;;;21.25;;
17207;SDS011;8720;48.488;9.202;2024-01-10T02:31:12;34.38;;;20.65;;
17207;SDS011;8720;48.488;9.202;2024-01-10T02:33:40;32.08;;;19.67;;
17207;SDS011;8720;48.488;9.202;2024-01-10T02:36:07;33.47;;;19.80;;
17207;SDS011;8720;48.488;9.202;2024-01-10T02:38:34;36.65;;;21.98;;
17207;SDS011;8720;48.488;9.202;2024-01-10T02:41:02;33.80;;;21.40;;
17207;SDS011;8720;48.488;9.202;2024-01-10T02:43:31;38.10;;;21.45;;
17207;SDS011;8720;48.488;9.202;2024-01-10T02:45:58;34.92;;;20.73;;
17207;SDS011;8720;48.488;9.202;2024-01-10T02:48:25;35.47;;;20.52;;
17207;SDS011;8720;48.488;9.202;2024-01-10T02:50:54;36.33;;;21.27;;
17207;SDS011;8720;48.488;9.202;2024-01-10T02:53:21;36.05;;;20.90;;
17207;SDS011;8720;48.488;9.202;2024-01-10T02:55:48;40.25;;;23.17;;
17207;SDS011;8720;48.488;9.202;2024-01-10T02:58:16;32.10;;;20.40;;
17207;SDS011;8720;48.488;9.202;2024-01-10T03:03:29;39.88;;;20.88;;
17207;SDS011;8720;48.488;9.202;2024-01-10T03:05:57;31.02;;;20.08;;
17207;SDS011;8720;48.488;9.202;2024-01-10T03:08:24;34.33;;;20.00;;
17207;SDS011;8720;48.488;9.202;2024-01-10T03:10:52;34.83;;;19.90;;
17207;SDS011;8720;48.488;9.202;2024-01-10T03:13:19;34.40;;;19.35;;
17207;SDS011;8720;48.488;9.202;2024-01-10T03:15:47;35.85;;;20.02;;
17207;SDS011;8720;48.488;9.202;2024-01-10T03:18:14;38.50;;;20.75;;
17207;SDS011;8720;48.488;9.202;2024-01-10T03:20:43;32.03;;;20.08;;
17207;SDS011;8720;48.488;9.202;2024-01-10T03:23:11;43.65;;;21.50;;
17207;SDS011;8720;48.488;9.202;2024-01-10T03:25:39;36.55;;;20.48;;
17207;SDS011;8720;48.488;9.202;2024-01-10T03:28:07;36.85;;;20.50;;
17207;SDS011;8720;48.488;9.202;2024-01-10T03:30:34;39.22;;;22.40;;
17207;SDS011;8720;48.488;9.202;2024-01-10T03:33:02;33.65;;;19.90;;
17207;SDS011;8720;48.488;9.202;2024-01-10T03:35:30;33.92;;;19.80;;
17207;SDS011;8720;48.488;9.202;2024-01-10T03:37:59;33.40;;;20.63;;
17207;SDS011;8720;48.488;9.202;2024-01-10T03:40:26;36.58;;;20.30;;
17207;SDS011;8720;48.488;9.202;2024-01-10T03:42:54;34.90;;;20.83;;
17207;SDS011;8720;48.488;9.202;2024-01-10T03:45:21;35.67;;;20.95;;
17207;SDS011;8720;48.488;9.202;2024-01-10T03:47:50;32.03;;;19.35;;
17207;SDS011;8720;48.488;9.202;2024-01-10T03:50:17;33.60;;;21.00;;
17207;SDS011;8720;48.488;9.202;2024-01-10T03:52:46;32.38;;;20.48;;
17207;SDS011;8720;48.488;9.202;2024-01-10T03:55:15;32.83;;;19.83;;
17207;SDS011;8720;48.488;9.202;2024-01-10T03:57:43;32.70;;;20.30;;
17207;SDS011;8720;48.488;9.202;2024-01-10T04:00:10;34.78;;;19.88;;
17207;SDS011;8720;48.488;9.202;2024-01-10T04:02:39;34.28;;;20.05;;
17207;SDS011;8720;48.488;9.202;2024-01-10T04:05:07;33.53;;;21.08;;
17207;SDS011;8720;48.488;9.202;2024-01-10T04:07:39;32.38;;;20.67;;
17207;SDS011;8720;48.488;9.202;2024-01-10T04:10:08;35.22;;;19.95;;
17207;SDS011;8720;48.488;9.202;2024-01-10T04:12:38;35.05;;;20.55;;
17207;SDS011;8720;48.488;9.202;2024-01-10T04:15:06;34.78;;;19.65;;
17207;SDS011;8720;48.488;9.202;2024-01-10T04:17:34;27.42;;;19.30;;
17207;SDS011;8720;48.488;9.202;2024-01-10T04:20:02;35.30;;;20.65;;
17207;SDS011;8720;48.488;9.202;2024-01-10T04:22:30;38.83;;;21.30;;
17207;SDS011;8720;48.488;9.202;2024-01-10T04:24:57;32.38;;;18.95;;
17207;SDS011;8720;48.488;9.202;2024-01-10T04:27:27;36.92;;;20.90;;
17207;SDS011;8720;48.488;9.202;2024-01-10T04:29:56;36.53;;;20.00;;
17207;SDS011;8720;48.488;9.202;2024-01-10T04:32:23;36.63;;;21.48;;
17207;SDS011;8720;48.488;9.202;2024-01-10T04:34:51;35.15;;;20.05;;
17207;SDS011;8720;48.488;9.202;2024-01-10T04:37:18;33.25;;;19.58;;
17207;SDS011;8720;48.488;9.202;2024-01-10T04:39:46;35.90;;;19.33;;
17207;SDS011;8720;48.488;9.202;2024-01-10T04:42:13;30.27;;;19.35;;
17207;SDS011;8720;48.488;9.202;2024-01-10T04:44:41;33.60;;;19.55;;
17207;SDS011;8720;48.488;9.202;2024-01-10T04:47:10;30.45;;;18.60;;
17207;SDS011;8720;48.488;9.202;2024-01-10T04:49:37;30.95;;;18.77;;
17207;SDS011;8720;48.488;9.202;2024-01-10T04:52:05;29.75;;;17.90;;
17207;SDS011;8720;48.488;9.202;2024-01-10T04:54:32;31.40;;;19.52;;
17207;SDS011;8720;48.488;9.202;2024-01-10T04:57:00;32.38;;;19.17;;
17207;SDS011;8720;48.488;9.202;2024-01-10T04:59:28;33.92;;;19.30;;
17207;SDS011;8720;48.488;9.202;2024-01-10T05:01:55;34.58;;;19.60;;
17207;SDS011;8720;48.488;9.202;2024-01-10T05:04:24;31.13;;;18.92;;
17207;SDS011;8720;48.488;9.202;2024-01-10T05:06:52;30.70;;;19.65;;
17207;SDS011;8720;48.488;9.202;2024-01-10T05:09:19;32.20;;;18.77;;
17207;SDS011;8720;48.488;9.202;2024-01-10T05:11:46;37.08;;;20.00;;
17207;SDS011;8720;48.488;9.202;2024-01-10T05:14:16;33.60;;;19.90;;
17207;SDS011;8720;48.488;9.202;2024-01-10T05:16:44;36.20;;;21.27;;
17207;SDS011;8720;48.488;9.202;2024-01-10T05:19:12;34.13;;;20.65;;
17207;SDS011;8720;48.488;9.202;2024-01-10T05:21:42;32.42;;;19.83;;
17207;SDS011;8720;48.488;9.202;2024-01-10T05:24:09;36.58;;;22.02;;
17207;SDS011;8720;48.488;9.202;2024-01-10T05:26:37;36.42;;;21.10;;
17207;SDS011;8720;48.488;9.202;2024-01-10T05:29:05;31.98;;;20.27;;
17207;SDS011;8720;48.488;9.202;2024-01-10T05:31:33;33.45;;;21.00;;
17207;SDS011;8720;48.488;9.202;2024-01-10T05:34:01;33.15;;;20.58;;
17207;SDS011;8720;48.488;9.202;2024-01-10T05:36:30;36.83;;;21.00;;
17207;SDS011;8720;48.488;9.202;2024-01-10T05:39:00;34.13;;;21.20;;
17207;SDS011;8720;48.488;9.202;2024-01-10T05:41:27;36.30;;;22.30;;
17207;SDS011;8720;48.488;9.202;2024-01-10T05:43:55;35.35;;;20.95;;
17207;SDS011;8720;48.488;9.202;2024-01-10T05:46:22;37.78;;;21.67;;
17207;SDS011;8720;48.488;9.202;2024-01-10T05:48:49;31.85;;;20.52;;
17207;SDS011;8720;48.488;9.202;2024-01-10T05:51:17;33.30;;;20.40;;
17207;SDS011;8720;48.488;9.202;2024-01-10T05:53:44;33.65;;;21.27;;
17207;SDS011;8720;48.488;9.202;2024-01-10T05:56:13;39.05;;;21.33;;
17207;SDS011;8720;48.488;9.202;2024-01-10T05:58:40;35.53;;;21.40;;
17207;SDS011;8720;48.488;9.202;2024-01-10T06:01:07;33.08;;;20.23;;
17207;SDS011;8720;48.488;9.202;2024-01-10T06:03:35;37.72;;;21.90;;
17207;SDS011;8720;48.488;9.202;2024-01-10T06:06:04;30.40;;;19.27;;
17207;SDS011;8720;48.488;9.202;2024-01-10T06:08:32;28.35;;;18.55;;
17207;SDS011;8720;48.488;9.202;2024-01-10T06:11:02;32.78;;;20.23;;
17207;SDS011;8720;48.488;9.202;2024-01-10T06:13:35;31.08;;;19.52;;
17207;SDS011;8720;48.488;9.202;2024-01-10T06:16:03;30.40;;;19.65;;
17207;SDS011;8720;48.488;9.202;2024-01-10T06:18:31;38.20;;;21.83;;
17207;SDS011;8720;48.488;9.202;2024-01-10T06:20:59;34.28;;;20.42;;
17207;SDS011;8720;48.488;9.202;2024-01-10T06:23:26;34.33;;;22.48;;
17207;SDS011;8720;48.488;9.202;2024-01-10T06:25:54;34.50;;;20.92;;
17207;SDS011;8720;48.488;9.202;2024-01-10T06:28:21;31.65;;;21.00;;
17207;SDS011;8720;48.488;9.202;2024-01-10T06:30:51;35.67;;;19.48;;
17207;SDS011;8720;48.488;9.202;2024-01-10T06:33:18;41.42;;;21.67;;
17207;SDS011;8720;48.488;9.202;2024-01-10T06:35:46;38.55;;;23.25;;
17207;SDS011;8720;48.488;9.202;2024-01-10T06:38:13;37.70;;;21.45;;
17207;SDS011;8720;48.488;9.202;2024-01-10T06:40:43;35.80;;;21.23;;
17207;SDS011;8720;48.488;9.202;2024-01-10T06:43:12;37.70;;;22.75;;
17207;SDS011;8720;48.488;9.202;2024-01-10T06:45:40;34.80;;;23.40;;
17207;SDS011;8720;48.488;9.202;2024-01-10T06:48:09;37.92;;;23.42;;
17207;SDS011;8720;48.488;9.202;2024-01-10T06:50:37;35.53;;;21.90;;
17207;SDS011;8720;48.488;9.202;2024-01-10T06:53:05;38.78;;;22.55;;
17207;SDS011;8720;48.488;9.202;2024-01-10T06:55:34;43.75;;;25.92;;
17207;SDS011;8720;48.488;9.202;2024-01-10T06:58:01;37.85;;;23.27;;
17207;SDS011;8720;48.488;9.202;2024-01-10T07:00:29;36.15;;;22.63;;
17207;SDS011;8720;48.488;9.202;2024-01-10T07:02:56;32.17;;;20.92;;
17207;SDS011;8720;48.488;9.202;2024-01-10T07:05:29;38.42;;;22.17;;
17207;SDS011;8720;48.488;9.202;2024-01-10T07:07:56;39.40;;;22.85;;
17207;SDS011;8720;48.488;9.202;2024-01-10T07:10:24;42.05;;;23.55;;
17207;SDS011;8720;48.488;9.202;2024-01-10T07:12:53;37.88;;;22.45;;
17207;SDS011;8720;48.488;9.202;2024-01-10T07:15:20;35.90;;;22.48;;
17207;SDS011;8720;48.488;9.202;2024-01-10T07:17:48;39.47;;;22.23;;
17207;SDS011;8720;48.488;9.202;2024-01-10T07:20:16;40.63;;;23.77;;
17207;SDS011;8720;48.488;9.202;2024-01-10T07:22:45;38.63;;;21.40;;
17207;SDS011;8720;48.488;9.202;2024-01-10T07:25:12;41.88;;;22.75;;
17207;SDS011;8720;48.488;9.202;2024-01-10T07:27:40;38.85;;;23.70;;
17207;SDS011;8720;48.488;9.202;2024-01-10T07:30:08;37.47;;;22.55;;
17207;SDS011;8720;48.488;9.202;2024-01-10T07:32:39;41.50;;;22.42;;
17207;SDS011;8720;48.488;9.202;2024-01-10T07:35:07;35.28;;;20.90;;
17207;SDS011;8720;48.488;9.202;2024-01-10T07:37:36;44.58;;;22.42;;
17207;SDS011;8720;48.488;9.202;2024-01-10T07:40:06;34.85;;;21.02;;
17207;SDS011;8720;48.488;9.202;2024-01-10T07:42:36;41.55;;;24.50;;
17207;SDS011;8720;48.488;9.202;2024-01-10T07:45:05;40.58;;;21.05;;
17207;SDS011;8720;48.488;9.202;2024-01-10T07:47:34;34.78;;;20.27;;
17207;SDS011;8720;48.488;9.202;2024-01-10T07:50:04;35.15;;;21.23;;
17207;SDS011;8720;48.488;9.202;2024-01-10T07:52:32;41.67;;;22.23;;
17207;SDS011;8720;48.488;9.202;2024-01-10T07:55:00;34.28;;;21.70;;
17207;SDS011;8720;48.488;9.202;2024-01-10T07:57:31;36.03;;;21.92;;
17207;SDS011;8720;48.488;9.202;2024-01-10T07:59:59;36.50;;;22.63;;
17207;SDS011;8720;48.488;9.202;2024-01-10T08:02:34;36.50;;;20.77;;
17207;SDS011;8720;48.488;9.202;2024-01-10T08:05:01;34.33;;;20.98;;
17207;SDS011;8720;48.488;9.202;2024-01-10T08:07:33;34.40;;;22.35;;
17207;SDS011;8720;48.488;9.202;2024-01-10T08:10:03;39.47;;;22.20;;
17207;SDS011;8720;48.488;9.202;2024-01-10T08:12:32;36.92;;;22.17;;
17207;SDS011;8720;48.488;9.202;2024-01-10T08:15:00;34.58;;;21.08;;
17207;SDS011;8720;48.488;9.202;2024-01-10T08:17:28;38.25;;;22.90;;
17207;SDS011;8720;48.488;9.202;2024-01-10T08:19:57;39.78;;;22.35;;
17207;SDS011;8720;48.488;9.202;2024-01-10T08:22:25;40.92;;;22.92;;
17207;SDS011;8720;48.488;9.202;2024-01-10T08:24:53;37.38;;;22.60;;
17207;SDS011;8720;48.488;9.202;2024-01-10T08:27:21;41.70;;;23.83;;
17207;SDS011;8720;48.488;9.202;2024-01-10T08:29:50;39.85;;;24.30;;
17207;SDS011;8720;48.488;9.202;2024-01-10T08:32:18;41.63;;;22.95;;
17207;SDS011;8720;48.488;9.202;2024-01-10T08:34:47;36.90;;;22.92;;
17207;SDS011;8720;48.488;9.202;2024-01-10T08:37:15;36.20;;;23.25;;
17207;SDS011;8720;48.488;9.202;2024-01-10T08:39:43;36.58;;;27.15;;
17207;SDS011;8720;48.488;9.202;2024-01-10T08:42:13;41.78;;;26.20;;
17207;SDS011;8720;48.488;9.202;2024-01-10T08:44:40;40.40;;;25.50;;
17207;SDS011;8720;48.488;9.202;2024-01-10T08:47:10;39.70;;;24.90;;
17207;SDS011;8720;48.488;9.202;2024-01-10T08:49:37;39.40;;;24.88;;
17207;SDS011;8720;48.488;9.202;2024-01-10T08:52:04;39.67;;;22.42;;
17207;SDS011;8720;48.488;9.202;2024-01-10T08:54:33;42.40;;;24.75;;
17207;SDS011;8720;48.488;9.202;2024-01-10T08:57:00;40.60;;;25.50;;
17207;SDS011;8720;48.488;9.202;2024-01-10T08:59:28;38.10;;;24.50;;
17207;SDS011;8720;48.488;9.202;2024-01-10T09:01:56;40.97;;;25.65;;
17207;SDS011;8720;48.488;9.202;2024-01-10T09:04:25;37.97;;;24.80;;
17207;SDS011;8720;48.488;9.202;2024-01-10T09:06:53;43.30;;;24.40;;
17207;SDS011;8720;48.488;9.202;2024-01-10T09:09:20;42.83;;;26.92;;
17207;SDS011;8720;48.488;9.202;2024-01-10T09:11:48;49.67;;;26.73;;
17207;SDS011;8720;48.488;9.202;2024-01-10T09:14:16;44.03;;;27.05;;
17207;SDS011;8720;48.488;9.202;2024-01-10T09:16:44;38.05;;;24.70;;
17207;SDS011;8720;48.488;9.202;2024-01-10T09:19:11;43.47;;;24.23;;
17207;SDS011;8720;48.488;9.202;2024-01-10T09:21:41;38.15;;;23.63;;
17207;SDS011;8720;48.488;9.202;2024-01-10T09:24:08;40.85;;;24.13;;
17207;SDS011;8720;48.488;9.202;2024-01-10T09:26:36;45.10;;;24.85;;
17207;SDS011;8720;48.488;9.202;2024-01-10T09:29:04;41.65;;;24.90;;
17207;SDS011;8720;48.488;9.202;2024-01-10T09:31:32;38.88;;;25.35;;
17207;SDS011;8720;48.488;9.202;2024-01-10T09:33:59;40.40;;;25.95;;
17207;SDS011;8720;48.488;9.202;2024-01-10T09:36:27;37.70;;;25.85;;
17207;SDS011;8720;48.488;9.202;2024-01-10T09:38:56;40.08;;;26.08;;
17207;SDS011;8720;48.488;9.202;2024-01-10T09:41:24;45.42;;;27.35;;
17207;SDS011;8720;48.488;9.202;2024-01-10T09:43:57;41.60;;;25.08;;
17207;SDS011;8720;48.488;9.202;2024-01-10T09:46:25;39.63;;;24.58;;
17207;SDS011;8720;48.488;9.202;2024-01-10T09:48:55;44.55;;;25.25;;
17207;SDS011;8720;48.488;9.202;2024-01-10T09:51:23;38.10;;;23.85;;
17207;SDS011;8720;48.488;9.202;2024-01-10T09:53:53;37.20;;;23.63;;
17207;SDS011;8720;48.488;9.202;2024-01-10T09:56:25;38.97;;;22.90;;
17207;SDS011;8720;48.488;9.202;2024-01-10T09:58:53;43.40;;;25.95;;
17207;SDS011;8720;48.488;9.202;2024-01-10T10:01:24;38.08;;;24.23;;
17207;SDS011;8720;48.488;9.202;2024-01-10T10:03:52;47.17;;;24.25;;
17207;SDS011;8720;48.488;9.202;2024-01-10T10:06:23;50.38;;;25.50;;
17207;SDS011;8720;48.488;9.202;2024-01-10T10:08:51;43.22;;;25.13;;
17207;SDS011;8720;48.488;9.202;2024-01-10T10:11:19;42.50;;;25.13;;
17207;SDS011;8720;48.488;9.202;2024-01-10T10:13:47;44.22;;;27.42;;
17207;SDS011;8720;48.488;9.202;2024-01-10T10:16:15;37.83;;;24.75;;
17207;SDS011;8720;48.488;9.202;2024-01-10T10:18:51;37.22;;;24.30;;
17207;SDS011;8720;48.488;9.202;2024-01-10T10:21:24;43.17;;;24.63;;
17207;SDS011;8720;48.488;9.202;2024-01-10T10:23:59;39.80;;;24.55;;
17207;SDS011;8720;48.488;9.202;2024-01-10T10:26:31;41.67;;;23.80;;
17207;SDS011;8720;48.488;9.202;2024-01-10T10:29:00;41.67;;;25.83;;
17207;SDS011;8720;48.488;9.202;2024-01-10T10:31:29;43.53;;;25.00;;
17207;SDS011;8720;48.488;9.202;2024-01-10T10:33:59;39.05;;;24.65;;
17207;SDS011;8720;48.488;9.202;2024-01-10T10:36:29;39.58;;;24.60;;
17207;SDS011;8720;48.488;9.202;2024-01-10T10:38:59;37.28;;;23.73;;
17207;SDS011;8720;48.488;9.202;2024-01-10T10:41:31;39.38;;;24.65;;
17207;SDS011;8720;48.488;9.202;2024-01-10T10:44:01;42.67;;;24.98;;
17207;SDS011;8720;48.488;9.202;2024-01-10T10:46:32;41.65;;;24.27;;
17207;SDS011;8720;48.488;9.202;2024-01-10T10:49:06;45.13;;;23.85;;
17207;SDS011;8720;48.488;9.202;2024-01-10T10:51:38;42.55;;;24.83;;
17207;SDS011;8720;48.488;9.202;2024-01-10T10:54:08;40.53;;;24.50;;
17207;SDS011;8720;48.488;9.202;2024-01-10T10:56:39;40.78;;;25.25;;
17207;SDS011;8720;48.488;9.202;2024-01-10T10:59:10;40.45;;;26.00;;
17207;SDS011;8720;48.488;9.202;2024-01-10T11:01:42;39.33;;;25.30;;
17207;SDS011;8720;48.488;9.202;2024-01-10T11:04:11;40.08;;;25.77;;
17207;SDS011;8720;48.488;9.202;2024-01-10T11:06:40;41.70;;;24.30;;
17207;SDS011;8720;48.488;9.202;2024-01-10T11:09:08;39.55;;;26.10;;
17207;SDS011;8720;48.488;9.202;2024-01-10T11:11:45;36.78;;;24.40;;
17207;SDS011;8720;48.488;9.202;2024-01-10T11:14:45;40.30;;;25.90;;
17207;SDS011;8720;48.488;9.202;2024-01-10T11:17:49;39.95;;;24.30;;
17207;SDS011;8720;48.488;9.202;2024-01-10T11:20:47;44.70;;;24.27;;
17207;SDS011;8720;48.488;9.202;2024-01-10T11:23:39;38.77;;;23.87;;
17207;SDS011;8720;48.488;9.202;2024-01-10T11:26:13;39.63;;;25.10;;
17207;SDS011;8720;48.488;9.202;2024-01-10T11:28:45;42.80;;;26.93;;
17207;SDS011;8720;48.488;9.202;2024-01-10T11:31:14;38.57;;;23.40;;
17207;SDS011;8720;48.488;9.202;2024-01-10T11:33:42;47.10;;;25.90;;
17207;SDS011;8720;48.488;9.202;2024-01-10T11:36:12;41.27;;;25.30;;
17207;SDS011;8720;48.488;9.202;2024-01-10T11:38:42;40.40;;;25.77;;
17207;SDS011;8720;48.488;9.202;2024-01-10T11:41:19;39.90;;;24.57;;
17207;SDS011;8720;48.488;9.202;2024-01-10T11:46:58;42.50;;;24.53;;
17207;SDS011;8720;48.488;9.202;2024-01-10T11:49:27;40.57;;;24.27;;
17207;SDS011;8720;48.488;9.202;2024-01-10T11:51:55;39.43;;;24.70;;
17207;SDS011;8720;48.488;9.202;2024-01-10T11:54:36;43.30;;;25.40;;
17207;SDS011;8720;48.488;9.202;2024-01-10T11:57:10;41.93;;;25.47;;
17207;SDS011;8720;48.488;9.202;2024-01-10T11:59:42;40.07;;;25.20;;
17207;SDS011;8720;48.488;9.202;2024-01-10T12:02:11;35.00;;;24.40;;
17207;SDS011;8720;48.488;9.202;2024-01-10T12:04:40;38.83;;;25.67;;
17207;SDS011;8720;48.488;9.202;2024-01-10T12:07:08;40.30;;;26.47;;
17207;SDS011;8720;48.488;9.202;2024-01-10T12:09:36;36.73;;;24.87;;
17207;SDS011;8720;48.488;9.202;2024-01-10T12:12:04;51.27;;;27.70;;
17207;SDS011;8720;48.488;9.202;2024-01-10T12:14:33;42.17;;;26.27;;
17207;SDS011;8720;48.488;9.202;2024-01-10T12:17:04;39.87;;;26.30;;
17207;SDS011;8720;48.488;9.202;2024-01-10T12:19:33;38.97;;;25.70;;
17207;SDS011;8720;48.488;9.202;2024-01-10T12:22:02;36.37;;;25.10;;
17207;SDS011;8720;48.488;9.202;2024-01-10T12:24:31;39.77;;;26.87;;
17207;SDS011;8720;48.488;9.202;2024-01-10T12:26:58;39.53;;;26.80;;
17207;SDS011;8720;48.488;9.202;2024-01-10T12:29:26;38.47;;;23.87;;
17207;SDS011;8720;48.488;9.202;2024-01-10T12:31:54;45.97;;;28.03;;
17207;SDS011;8720;48.488;9.202;2024-01-10T12:34:23;43.13;;;27.50;;
17207;SDS011;8720;48.488;9.202;2024-01-10T12:36:54;40.80;;;26.30;;
17207;SDS011;8720;48.488;9.202;2024-01-10T12:39:22;41.23;;;26.80;;
17207;SDS011;8720;48.488;9.202;2024-01-10T12:41:51;38.43;;;25.20;;
17207;SDS011;8720;48.488;9.202;2024-01-10T12:44:18;42.20;;;25.70;;
17207;SDS011;8720;48.488;9.202;2024-01-10T12:46:49;36.93;;;25.77;;
17207;SDS011;8720;48.488;9.202;2024-01-10T12:49:22;40.77;;;25.57;;
17207;SDS011;8720;48.488;9.202;2024-01-10T12:51:50;37.80;;;25.53;;
17207;SDS011;8720;48.488;9.202;2024-01-10T12:54:18;33.87;;;24.47;;
17207;SDS011;8720;48.488;9.202;2024-01-10T12:56:47;37.67;;;26.03;;
17207;SDS011;8720;48.488;9.202;2024-01-10T12:59:16;38.10;;;25.13;;
17207;SDS011;8720;48.488;9.202;2024-01-10T13:01:43;40.60;;;25.17;;
17207;SDS011;8720;48.488;9.202;2024-01-10T13:04:11;38.17;;;24.37;;
17207;SDS011;8720;48.488;9.202;2024-01-10T13:06:40;36.83;;;24.80;;
17207;SDS011;8720;48.488;9.202;2024-01-10T13:09:07;37.80;;;24.90;;
17207;SDS011;8720;48.488;9.202;2024-01-10T13:11:35;35.60;;;24.23;;
17207;SDS011;8720;48.488;9.202;2024-01-10T13:14:03;40.43;;;26.13;;
17207;SDS011;8720;48.488;9.202;2024-01-10T13:16:30;35.30;;;23.70;;
17207;SDS011;8720;48.488;9.202;2024-01-10T13:18:58;35.43;;;24.87;;
17207;SDS011;8720;48.488;9.202;2024-01-10T13:21:25;41.53;;;25.80;;
17207;SDS011;8720;48.488;9.202;2024-01-10T13:23:54;37.80;;;23.70;;
17207;SDS011;8720;48.488;9.202;2024-01-10T13:26:21;34.63;;;24.80;;
17207;SDS011;8720;48.488;9.202;2024-01-10T13:28:49;37.97;;;24.27;;
17207;SDS011;8720;48.488;9.202;2024-01-10T13:31:17;35.83;;;24.50;;
17207;SDS011;8720;48.488;9.202;2024-01-10T13:33:45;34.70;;;23.87;;
17207;SDS011;8720;48.488;9.202;2024-01-10T13:36:12;42.47;;;26.33;;
17207;SDS011;8720;48.488;9.202;2024-01-10T13:38:39;34.17;;;24.37;;
17207;SDS011;8720;48.488;9.202;2024-01-10T13:41:08;37.57;;;23.70;;
17207;SDS011;8720;48.488;9.202;2024-01-10T13:43:39;35.03;;;23.60;;
17207;SDS011;8720;48.488;9.202;2024-01-10T13:46:06;38.53;;;24.30;;
17207;SDS011;8720;48.488;9.202;2024-01-10T13:48:33;34.83;;;22.37;;
17207;SDS011;8720;48.488;9.202;2024-01-10T13:51:03;31.73;;;22.43;;
17207;SDS011;8720;48.488;9.202;2024-01-10T13:53:31;36.30;;;23.73;;
17207;SDS011;8720;48.488;9.202;2024-01-10T13:55:58;34.40;;;23.23;;
17207;SDS011;8720;48.488;9.202;2024-01-10T13:58:27;34.27;;;23.67;;
17207;SDS011;8720;48.488;9.202;2024-01-10T14:00:55;36.50;;;24.13;;
17207;SDS011;8720;48.488;9.202;2024-01-10T14:03:22;34.40;;;22.87;;
17207;SDS011;8720;48.488;9.202;2024-01-10T14:05:50;35.37;;;24.10;;
17207;SDS011;8720;48.488;9.202;2024-01-10T14:08:17;36.70;;;25.07;;
17207;SDS011;8720;48.488;9.202;2024-01-10T14:10:45;40.37;;;27.27;;
17207;SDS011;8720;48.488;9.202;2024-01-10T14:13:13;40.13;;;25.90;;
17207;SDS011;8720;48.488;9.202;2024-01-10T14:15:42;34.93;;;24.43;;
17207;SDS011;8720;48.488;9.202;2024-01-10T14:18:10;40.10;;;25.57;;
17207;SDS011;8720;48.488;9.202;2024-01-10T14:20:38;36.50;;;23.57;;
17207;SDS011;8720;48.488;9.202;2024-01-10T14:23:05;33.60;;;23.70;;
17207;SDS011;8720;48.488;9.202;2024-01-10T14:25:33;40.30;;;24.27;;
17207;SDS011;8720;48.488;9.202;2024-01-10T14:28:04;38.27;;;25.77;;
17207;SDS011;8720;48.488;9.202;2024-01-10T14:30:32;34.27;;;23.77;;
17207;SDS011;8720;48.488;9.202;2024-01-10T14:33:02;34.60;;;24.23;;
17207;SDS011;8720;48.488;9.202;2024-01-10T14:35:30;34.10;;;24.60;;
17207;SDS011;8720;48.488;9.202;2024-01-10T14:37:58;37.83;;;24.73;;
17207;SDS011;8720;48.488;9.202;2024-01-10T14:40:26;40.33;;;25.53;;
17207;SDS011;8720;48.488;9.202;2024-01-10T14:42:53;39.03;;;25.40;;
17207;SDS011;8720;48.488;9.202;2024-01-10T14:45:21;35.00;;;24.73;;
17207;SDS011;8720;48.488;9.202;2024-01-10T14:47:50;46.87;;;27.80;;